sensor_id;sensor_type;location;lat;lon;timestamp;temperature;humidity
52919;DHT22;38793;52.690;6.812;2023-04-01T00:00:08;10.00;99.90
52919;DHT22;38793;52.690;6.812;2023-04-01T00:02:34;10.00;99.90
52919;DHT22;38793;52.690;6.812;2023-04-01T00:05:00;10.00;99.90
52919;DHT22;38793;52.690;6.812;2023-04-01T00:07:27;10.00;99.90
52919;DHT22;38793;52.690;6.812;2023-04-01T00:09:52;10.00;99.90
52919;DHT22;38793;52.690;6.812;2023-04-01T00:12:17;10.00;99.90
52919;DHT22;38793;52.690;6.812;2023-04-01T00:14:43;10.00;99.90
52919;DHT22;38793;52.690;6.812;2023-04-01T00:17:09;10.00;99.90
52919;DHT22;38793;52.690;6.812;2023-04-01T00:19:35;10.00;99.90
52919;DHT22;38793;52.690;6.812;2023-04-01T00:22:02;10.00;99.90
52919;DHT22;38793;52.690;6.812;2023-04-01T00:24:27;10.00;99.90
52919;DHT22;38793;52.690;6.812;2023-04-01T00:26:53;9.90;99.90
52919;DHT22;38793;52.690;6.812;2023-04-01T00:29:18;9.90;99.90
52919;DHT22;38793;52.690;6.812;2023-04-01T00:31:44;9.90;99.90
52919;DHT22;38793;52.690;6.812;2023-04-01T00:34:09;9.90;99.90
52919;DHT22;38793;52.690;6.812;2023-04-01T00:36:35;9.90;99.90
52919;DHT22;38793;52.690;6.812;2023-04-01T00:39:00;9.90;99.90
52919;DHT22;38793;52.690;6.812;2023-04-01T00:41:26;9.90;99.90
52919;DHT22;38793;52.690;6.812;2023-04-01T00:44:11;9.90;99.90
52919;DHT22;38793;52.690;6.812;2023-04-01T00:46:38;9.80;99.90
52919;DHT22;38793;52.690;6.812;2023-04-01T00:49:04;9.80;99.90
52919;DHT22;38793;52.690;6.812;2023-04-01T00:51:29;9.90;99.90
52919;DHT22;38793;52.690;6.812;2023-04-01T00:53:56;9.80;99.90
52919;DHT22;38793;52.690;6.812;2023-04-01T00:56:27;9.80;99.90
52919;DHT22;38793;52.690;6.812;2023-04-01T00:59:04;9.80;99.90
52919;DHT22;38793;52.690;6.812;2023-04-01T01:01:30;9.80;99.90
52919;DHT22;38793;52.690;6.812;2023-04-01T01:03:56;9.80;99.90
52919;DHT22;38793;52.690;6.812;2023-04-01T01:09:10;9.80;99.90
52919;DHT22;38793;52.690;6.812;2023-04-01T01:16:40;9.80;99.90
52919;DHT22;38793;52.690;6.812;2023-04-01T01:19:21;9.80;99.90
52919;DHT22;38793;52.690;6.812;2023-04-01T01:27:00;9.80;99.90
52919;DHT22;38793;52.690;6.812;2023-04-01T01:34:44;9.80;99.90
52919;DHT22;38793;52.690;6.812;2023-04-01T01:37:15;9.80;99.90
52919;DHT22;38793;52.690;6.812;2023-04-01T01:39:46;9.80;99.90
52919;DHT22;38793;52.690;6.812;2023-04-01T01:42:13;9.80;99.90
52919;DHT22;38793;52.690;6.812;2023-04-01T01:44:39;9.80;99.90
52919;DHT22;38793;52.690;6.812;2023-04-01T01:47:06;9.80;99.90
52919;DHT22;38793;52.690;6.812;2023-04-01T01:49:32;9.80;99.90
52919;DHT22;38793;52.690;6.812;2023-04-01T01:51:58;9.80;99.90
52919;DHT22;38793;52.690;6.812;2023-04-01T01:54:24;9.80;99.90
52919;DHT22;38793;52.690;6.812;2023-04-01T01:56:51;9.80;99.90
52919;DHT22;38793;52.690;6.812;2023-04-01T01:59:18;9.70;99.90
52919;DHT22;38793;52.690;6.812;2023-04-01T02:01:46;9.80;99.90
52919;DHT22;38793;52.690;6.812;2023-04-01T02:04:13;9.70;99.90
52919;DHT22;38793;52.690;6.812;2023-04-01T02:06:42;9.70;99.90
52919;DHT22;38793;52.690;6.812;2023-04-01T02:09:10;9.70;99.90
52919;DHT22;38793;52.690;6.812;2023-04-01T02:11:37;9.80;99.90
52919;DHT22;38793;52.690;6.812;2023-04-01T02:14:09;9.70;99.90
52919;DHT22;38793;52.690;6.812;2023-04-01T02:16:40;9.70;99.90
52919;DHT22;38793;52.690;6.812;2023-04-01T02:19:08;9.70;99.90
52919;DHT22;38793;52.690;6.812;2023-04-01T02:21:35;9.70;99.90
52919;DHT22;38793;52.690;6.812;2023-04-01T02:24:03;9.70;99.90
52919;DHT22;38793;52.690;6.812;2023-04-01T02:26:30;9.70;99.90
52919;DHT22;38793;52.690;6.812;2023-04-01T02:28:56;9.70;99.90
52919;DHT22;38793;52.690;6.812;2023-04-01T02:31:22;9.70;99.90
52919;DHT22;38793;52.690;6.812;2023-04-01T02:33:48;9.70;99.90
52919;DHT22;38793;52.690;6.812;2023-04-01T02:36:14;9.70;99.90
52919;DHT22;38793;52.690;6.812;2023-04-01T02:38:41;9.70;99.90
52919;DHT22;38793;52.690;6.812;2023-04-01T02:41:08;9.70;99.90
52919;DHT22;38793;52.690;6.812;2023-04-01T02:43:33;9.70;99.90
52919;DHT22;38793;52.690;6.812;2023-04-01T02:45:59;9.70;99.90
52919;DHT22;38793;52.690;6.812;2023-04-01T02:48:24;9.70;99.90
52919;DHT22;38793;52.690;6.812;2023-04-01T02:50:50;9.70;99.90
52919;DHT22;38793;52.690;6.812;2023-04-01T02:53:16;9.70;99.90
52919;DHT22;38793;52.690;6.812;2023-04-01T02:55:41;9.70;99.90
52919;DHT22;38793;52.690;6.812;2023-04-01T02:58:07;9.70;99.90
52919;DHT22;38793;52.690;6.812;2023-04-01T03:00:33;9.70;99.90
52919;DHT22;38793;52.690;6.812;2023-04-01T03:02:58;9.70;99.90
52919;DHT22;38793;52.690;6.812;2023-04-01T03:05:25;9.70;99.90
52919;DHT22;38793;52.690;6.812;2023-04-01T03:07:50;9.70;99.90
52919;DHT22;38793;52.690;6.812;2023-04-01T03:10:16;9.70;99.90
52919;DHT22;38793;52.690;6.812;2023-04-01T03:12:42;9.70;99.90
52919;DHT22;38793;52.690;6.812;2023-04-01T03:15:09;9.70;99.90
52919;DHT22;38793;52.690;6.812;2023-04-01T03:17:34;9.70;99.90
52919;DHT22;38793;52.690;6.812;2023-04-01T03:20:00;9.70;99.90
52919;DHT22;38793;52.690;6.812;2023-04-01T03:22:26;9.70;99.90
52919;DHT22;38793;52.690;6.812;2023-04-01T03:24:51;9.80;99.90
52919;DHT22;38793;52.690;6.812;2023-04-01T03:27:17;9.80;99.90
52919;DHT22;38793;52.690;6.812;2023-04-01T03:29:42;9.70;99.90
52919;DHT22;38793;52.690;6.812;2023-04-01T03:32:08;9.70;99.90
52919;DHT22;38793;52.690;6.812;2023-04-01T03:34:33;9.80;99.90
52919;DHT22;38793;52.690;6.812;2023-04-01T03:36:59;9.70;99.90
52919;DHT22;38793;52.690;6.812;2023-04-01T03:39:24;9.80;99.90
52919;DHT22;38793;52.690;6.812;2023-04-01T03:41:50;9.80;99.90
52919;DHT22;38793;52.690;6.812;2023-04-01T03:44:16;9.80;99.90
52919;DHT22;38793;52.690;6.812;2023-04-01T03:46:41;9.80;99.90
52919;DHT22;38793;52.690;6.812;2023-04-01T03:49:07;9.80;99.90
52919;DHT22;38793;52.690;6.812;2023-04-01T03:51:40;9.80;99.90
52919;DHT22;38793;52.690;6.812;2023-04-01T03:54:06;9.80;99.90
52919;DHT22;38793;52.690;6.812;2023-04-01T03:56:31;9.80;99.90
52919;DHT22;38793;52.690;6.812;2023-04-01T03:58:57;9.80;99.90
52919;DHT22;38793;52.690;6.812;2023-04-01T04:01:23;9.70;99.90
52919;DHT22;38793;52.690;6.812;2023-04-01T04:03:49;9.80;99.90
52919;DHT22;38793;52.690;6.812;2023-04-01T04:06:15;9.80;99.90
52919;DHT22;38793;52.690;6.812;2023-04-01T04:08:41;9.80;99.90
52919;DHT22;38793;52.690;6.812;2023-04-01T04:11:06;9.80;99.90
52919;DHT22;38793;52.690;6.812;2023-04-01T04:13:32;9.70;99.90
52919;DHT22;38793;52.690;6.812;2023-04-01T04:15:57;9.70;99.90
52919;DHT22;38793;52.690;6.812;2023-04-01T04:18:23;9.70;99.90
52919;DHT22;38793;52.690;6.812;2023-04-01T04:20:49;9.70;99.90
52919;DHT22;38793;52.690;6.812;2023-04-01T04:23:16;9.70;99.90
52919;DHT22;38793;52.690;6.812;2023-04-01T04:25:52;9.80;99.90
52919;DHT22;38793;52.690;6.812;2023-04-01T04:28:18;9.70;99.90
52919;DHT22;38793;52.690;6.812;2023-04-01T04:30:43;9.80;99.90
52919;DHT22;38793;52.690;6.812;2023-04-01T04:33:09;9.70;99.90
52919;DHT22;38793;52.690;6.812;2023-04-01T04:35:34;9.70;99.90
52919;DHT22;38793;52.690;6.812;2023-04-01T04:38:00;9.70;99.90
52919;DHT22;38793;52.690;6.812;2023-04-01T04:40:25;9.80;99.90
52919;DHT22;38793;52.690;6.812;2023-04-01T04:42:51;9.70;99.90
52919;DHT22;38793;52.690;6.812;2023-04-01T04:45:16;9.70;99.90
52919;DHT22;38793;52.690;6.812;2023-04-01T04:47:42;9.70;99.90
52919;DHT22;38793;52.690;6.812;2023-04-01T04:50:08;9.70;99.90
52919;DHT22;38793;52.690;6.812;2023-04-01T04:52:34;9.80;99.90
52919;DHT22;38793;52.690;6.812;2023-04-01T04:54:59;9.80;99.90
52919;DHT22;38793;52.690;6.812;2023-04-01T04:57:25;9.80;99.90
52919;DHT22;38793;52.690;6.812;2023-04-01T04:59:50;9.80;99.90
52919;DHT22;38793;52.690;6.812;2023-04-01T05:02:16;9.80;99.90
52919;DHT22;38793;52.690;6.812;2023-04-01T05:04:41;9.80;99.90
52919;DHT22;38793;52.690;6.812;2023-04-01T05:07:07;9.80;99.90
52919;DHT22;38793;52.690;6.812;2023-04-01T05:09:32;9.80;99.90
52919;DHT22;38793;52.690;6.812;2023-04-01T05:11:59;9.80;99.90
52919;DHT22;38793;52.690;6.812;2023-04-01T05:14:24;9.80;99.90
52919;DHT22;38793;52.690;6.812;2023-04-01T05:16:50;9.80;99.90
52919;DHT22;38793;52.690;6.812;2023-04-01T05:19:15;9.80;99.90
52919;DHT22;38793;52.690;6.812;2023-04-01T05:21:41;9.80;99.90
52919;DHT22;38793;52.690;6.812;2023-04-01T05:24:07;9.80;99.90
52919;DHT22;38793;52.690;6.812;2023-04-01T05:26:33;9.80;99.90
52919;DHT22;38793;52.690;6.812;2023-04-01T05:28:58;9.80;99.90
52919;DHT22;38793;52.690;6.812;2023-04-01T05:31:24;9.80;99.90
52919;DHT22;38793;52.690;6.812;2023-04-01T05:33:50;9.90;99.90
52919;DHT22;38793;52.690;6.812;2023-04-01T05:36:16;9.80;99.90
52919;DHT22;38793;52.690;6.812;2023-04-01T05:38:42;9.90;99.90
52919;DHT22;38793;52.690;6.812;2023-04-01T05:41:08;9.90;99.90
52919;DHT22;38793;52.690;6.812;2023-04-01T05:43:36;9.90;99.90
52919;DHT22;38793;52.690;6.812;2023-04-01T05:46:02;9.90;99.90
52919;DHT22;38793;52.690;6.812;2023-04-01T05:48:28;9.90;99.90
52919;DHT22;38793;52.690;6.812;2023-04-01T05:50:53;9.90;99.90
52919;DHT22;38793;52.690;6.812;2023-04-01T05:53:19;9.90;99.90
52919;DHT22;38793;52.690;6.812;2023-04-01T05:55:44;9.90;99.90
52919;DHT22;38793;52.690;6.812;2023-04-01T05:58:10;9.90;99.90
52919;DHT22;38793;52.690;6.812;2023-04-01T06:00:35;10.00;99.90
52919;DHT22;38793;52.690;6.812;2023-04-01T06:03:01;9.90;99.90
52919;DHT22;38793;52.690;6.812;2023-04-01T06:05:30;9.90;99.90
52919;DHT22;38793;52.690;6.812;2023-04-01T06:07:59;9.90;99.90
52919;DHT22;38793;52.690;6.812;2023-04-01T06:10:48;10.00;99.90
52919;DHT22;38793;52.690;6.812;2023-04-01T06:18:35;10.00;99.90
52919;DHT22;38793;52.690;6.812;2023-04-01T06:23:46;10.00;99.90
52919;DHT22;38793;52.690;6.812;2023-04-01T06:26:25;10.00;99.90
52919;DHT22;38793;52.690;6.812;2023-04-01T06:37:07;10.00;99.90
52919;DHT22;38793;52.690;6.812;2023-04-01T06:39:59;10.10;99.90
52919;DHT22;38793;52.690;6.812;2023-04-01T06:43:14;10.00;99.90
52919;DHT22;38793;52.690;6.812;2023-04-01T06:45:48;10.00;99.90
52919;DHT22;38793;52.690;6.812;2023-04-01T06:51:21;10.10;99.90
52919;DHT22;38793;52.690;6.812;2023-04-01T06:56:54;10.10;99.90
52919;DHT22;38793;52.690;6.812;2023-04-01T06:59:25;10.10;99.90
52919;DHT22;38793;52.690;6.812;2023-04-01T07:01:57;10.20;99.90
52919;DHT22;38793;52.690;6.812;2023-04-01T07:04:34;10.20;99.90
52919;DHT22;38793;52.690;6.812;2023-04-01T07:09:51;10.20;99.90
52919;DHT22;38793;52.690;6.812;2023-04-01T07:14:48;10.20;99.90
52919;DHT22;38793;52.690;6.812;2023-04-01T07:17:27;10.30;99.90
52919;DHT22;38793;52.690;6.812;2023-04-01T07:22:35;10.30;99.90
52919;DHT22;38793;52.690;6.812;2023-04-01T07:25:11;10.40;99.90
52919;DHT22;38793;52.690;6.812;2023-04-01T07:27:37;10.40;99.90
52919;DHT22;38793;52.690;6.812;2023-04-01T07:30:13;10.40;99.90
52919;DHT22;38793;52.690;6.812;2023-04-01T07:32:54;10.40;99.90
52919;DHT22;38793;52.690;6.812;2023-04-01T07:35:38;10.40;99.90
52919;DHT22;38793;52.690;6.812;2023-04-01T07:38:24;10.40;99.90
52919;DHT22;38793;52.690;6.812;2023-04-01T07:44:02;10.50;99.90
52919;DHT22;38793;52.690;6.812;2023-04-01T07:47:07;10.50;99.90
52919;DHT22;38793;52.690;6.812;2023-04-01T07:52:39;10.50;99.90
52919;DHT22;38793;52.690;6.812;2023-04-01T07:55:27;10.60;99.90
52919;DHT22;38793;52.690;6.812;2023-04-01T08:03:09;10.60;99.90
52919;DHT22;38793;52.690;6.812;2023-04-01T08:20:02;10.70;99.90
52919;DHT22;38793;52.690;6.812;2023-04-01T08:22:41;10.80;99.90
52919;DHT22;38793;52.690;6.812;2023-04-01T08:25:14;10.80;99.90
52919;DHT22;38793;52.690;6.812;2023-04-01T08:27:44;10.80;99.90
52919;DHT22;38793;52.690;6.812;2023-04-01T08:30:25;10.80;99.90
52919;DHT22;38793;52.690;6.812;2023-04-01T08:33:03;10.80;99.90
52919;DHT22;38793;52.690;6.812;2023-04-01T08:35:46;10.80;99.90
52919;DHT22;38793;52.690;6.812;2023-04-01T08:38:21;10.80;99.90
52919;DHT22;38793;52.690;6.812;2023-04-01T08:41:01;10.80;99.90
52919;DHT22;38793;52.690;6.812;2023-04-01T09:00:03;11.00;99.90
52919;DHT22;38793;52.690;6.812;2023-04-01T09:02:48;11.10;99.90
52919;DHT22;38793;52.690;6.812;2023-04-01T09:07:55;11.30;99.90
52919;DHT22;38793;52.690;6.812;2023-04-01T09:19:25;11.30;99.90
52919;DHT22;38793;52.690;6.812;2023-04-01T09:27:24;11.50;99.90
52919;DHT22;38793;52.690;6.812;2023-04-01T09:30:06;11.50;99.90
52919;DHT22;38793;52.690;6.812;2023-04-01T09:32:48;11.60;99.90
52919;DHT22;38793;52.690;6.812;2023-04-01T09:38:00;11.70;99.90
52919;DHT22;38793;52.690;6.812;2023-04-01T09:40:37;11.80;99.90
52919;DHT22;38793;52.690;6.812;2023-04-01T09:46:30;11.80;99.90
52919;DHT22;38793;52.690;6.812;2023-04-01T10:00:32;11.80;99.90
52919;DHT22;38793;52.690;6.812;2023-04-01T10:08:50;11.80;99.90
52919;DHT22;38793;52.690;6.812;2023-04-01T10:14:06;11.80;99.90
52919;DHT22;38793;52.690;6.812;2023-04-01T10:25:23;11.60;99.90
52919;DHT22;38793;52.690;6.812;2023-04-01T10:28:04;11.60;99.90
52919;DHT22;38793;52.690;6.812;2023-04-01T10:30:51;11.60;99.90
52919;DHT22;38793;52.690;6.812;2023-04-01T11:00:54;12.10;99.90
52919;DHT22;38793;52.690;6.812;2023-04-01T11:28:24;12.10;99.90
52919;DHT22;38793;52.690;6.812;2023-04-01T11:37:08;12.20;99.90
52919;DHT22;38793;52.690;6.812;2023-04-01T12:07:11;12.20;99.90
52919;DHT22;38793;52.690;6.812;2023-04-01T12:18:51;12.20;99.90
52919;DHT22;38793;52.690;6.812;2023-04-01T12:21:26;12.20;99.90
52919;DHT22;38793;52.690;6.812;2023-04-01T12:24:29;12.20;99.90
52919;DHT22;38793;52.690;6.812;2023-04-01T12:32:40;12.00;99.90
52919;DHT22;38793;52.690;6.812;2023-04-01T12:52:05;11.70;99.90
52919;DHT22;38793;52.690;6.812;2023-04-01T12:57:33;11.80;99.90
52919;DHT22;38793;52.690;6.812;2023-04-01T13:03:19;11.70;99.90
52919;DHT22;38793;52.690;6.812;2023-04-01T13:09:37;11.60;99.90
52919;DHT22;38793;52.690;6.812;2023-04-01T13:17:41;11.50;99.90
52919;DHT22;38793;52.690;6.812;2023-04-01T13:20:16;11.50;99.90
52919;DHT22;38793;52.690;6.812;2023-04-01T13:22:58;11.40;99.90
52919;DHT22;38793;52.690;6.812;2023-04-01T13:25:54;11.30;99.90
52919;DHT22;38793;52.690;6.812;2023-04-01T13:28:28;11.30;99.90
52919;DHT22;38793;52.690;6.812;2023-04-01T13:31:25;11.20;99.90
52919;DHT22;38793;52.690;6.812;2023-04-01T13:42:33;11.10;99.90
52919;DHT22;38793;52.690;6.812;2023-04-01T13:45:02;11.00;99.90
52919;DHT22;38793;52.690;6.812;2023-04-01T13:48:03;11.00;99.90
52919;DHT22;38793;52.690;6.812;2023-04-01T13:50:58;11.00;99.90
52919;DHT22;38793;52.690;6.812;2023-04-01T13:56:47;11.00;99.90
52919;DHT22;38793;52.690;6.812;2023-04-01T14:05:42;11.10;99.90
52919;DHT22;38793;52.690;6.812;2023-04-01T14:08:09;11.10;99.90
52919;DHT22;38793;52.690;6.812;2023-04-01T14:10:55;11.00;99.90
52919;DHT22;38793;52.690;6.812;2023-04-01T14:32:34;10.90;99.90
52919;DHT22;38793;52.690;6.812;2023-04-01T14:38:24;10.90;99.90
52919;DHT22;38793;52.690;6.812;2023-04-01T14:43:21;10.80;99.90
52919;DHT22;38793;52.690;6.812;2023-04-01T14:51:38;10.80;99.90
52919;DHT22;38793;52.690;6.812;2023-04-01T14:54:33;10.80;99.90
52919;DHT22;38793;52.690;6.812;2023-04-01T14:59:40;10.80;99.90
52919;DHT22;38793;52.690;6.812;2023-04-01T15:05:16;10.70;99.90
52919;DHT22;38793;52.690;6.812;2023-04-01T15:13:12;10.60;99.90
52919;DHT22;38793;52.690;6.812;2023-04-01T15:18:38;10.60;99.90
52919;DHT22;38793;52.690;6.812;2023-04-01T15:21:18;10.60;99.90
52919;DHT22;38793;52.690;6.812;2023-04-01T15:31:55;10.40;99.90
52919;DHT22;38793;52.690;6.812;2023-04-01T15:40:05;10.30;99.90
52919;DHT22;38793;52.690;6.812;2023-04-01T15:43:57;10.30;99.90
52919;DHT22;38793;52.690;6.812;2023-04-01T15:45:58;10.20;99.90
52919;DHT22;38793;52.690;6.812;2023-04-01T16:05:28;10.00;99.90
52919;DHT22;38793;52.690;6.812;2023-04-01T16:08:01;10.00;99.90
52919;DHT22;38793;52.690;6.812;2023-04-01T16:12:00;10.00;99.90
52919;DHT22;38793;52.690;6.812;2023-04-01T16:17:05;10.00;99.90
52919;DHT22;38793;52.690;6.812;2023-04-01T16:19:49;10.00;99.90
52919;DHT22;38793;52.690;6.812;2023-04-01T16:22:27;10.00;99.90
52919;DHT22;38793;52.690;6.812;2023-04-01T16:25:19;9.90;99.90
52919;DHT22;38793;52.690;6.812;2023-04-01T16:28:19;9.90;99.90
52919;DHT22;38793;52.690;6.812;2023-04-01T16:33:47;9.80;99.90
52919;DHT22;38793;52.690;6.812;2023-04-01T16:36:42;9.80;99.90
52919;DHT22;38793;52.690;6.812;2023-04-01T16:44:48;9.70;99.90
52919;DHT22;38793;52.690;6.812;2023-04-01T16:47:20;9.70;99.90
52919;DHT22;38793;52.690;6.812;2023-04-01T16:49:52;9.70;99.90
52919;DHT22;38793;52.690;6.812;2023-04-01T16:52:40;9.70;99.90
52919;DHT22;38793;52.690;6.812;2023-04-01T16:55:20;9.60;99.90
52919;DHT22;38793;52.690;6.812;2023-04-01T16:58:00;9.60;99.90
52919;DHT22;38793;52.690;6.812;2023-04-01T17:00:28;9.60;99.90
52919;DHT22;38793;52.690;6.812;2023-04-01T17:03:44;9.50;99.90
52919;DHT22;38793;52.690;6.812;2023-04-01T17:08:42;9.40;99.90
52919;DHT22;38793;52.690;6.812;2023-04-01T17:16:43;9.20;99.90
52919;DHT22;38793;52.690;6.812;2023-04-01T17:19:33;9.20;99.90
52919;DHT22;38793;52.690;6.812;2023-04-01T17:22:25;9.10;99.90
52919;DHT22;38793;52.690;6.812;2023-04-01T17:41:45;8.90;99.90
52919;DHT22;38793;52.690;6.812;2023-04-01T17:49:41;8.80;99.90
52919;DHT22;38793;52.690;6.812;2023-04-01T18:06:26;8.50;99.90
52919;DHT22;38793;52.690;6.812;2023-04-01T18:12:21;8.50;99.90
52919;DHT22;38793;52.690;6.812;2023-04-01T18:15:35;8.50;99.90
52919;DHT22;38793;52.690;6.812;2023-04-01T18:21:04;8.40;99.90
52919;DHT22;38793;52.690;6.812;2023-04-01T18:23:41;8.40;99.90
52919;DHT22;38793;52.690;6.812;2023-04-01T18:26:20;8.40;99.90
52919;DHT22;38793;52.690;6.812;2023-04-01T18:28:54;8.30;99.90
52919;DHT22;38793;52.690;6.812;2023-04-01T18:31:25;8.30;99.90
52919;DHT22;38793;52.690;6.812;2023-04-01T18:36:33;8.20;99.90
52919;DHT22;38793;52.690;6.812;2023-04-01T18:39:22;8.20;99.90
52919;DHT22;38793;52.690;6.812;2023-04-01T18:47:43;8.10;99.90
52919;DHT22;38793;52.690;6.812;2023-04-01T18:52:53;8.10;99.90
52919;DHT22;38793;52.690;6.812;2023-04-01T18:55:42;8.00;99.90
52919;DHT22;38793;52.690;6.812;2023-04-01T18:58:27;8.00;99.90
52919;DHT22;38793;52.690;6.812;2023-04-01T19:06:50;7.90;99.90
52919;DHT22;38793;52.690;6.812;2023-04-01T19:09:32;7.90;99.90
52919;DHT22;38793;52.690;6.812;2023-04-01T19:15:13;7.80;99.90
52919;DHT22;38793;52.690;6.812;2023-04-01T19:20:52;7.80;99.90
52919;DHT22;38793;52.690;6.812;2023-04-01T19:23:53;7.80;99.90
52919;DHT22;38793;52.690;6.812;2023-04-01T19:26:34;7.70;99.90
52919;DHT22;38793;52.690;6.812;2023-04-01T19:37:50;7.60;99.90
52919;DHT22;38793;52.690;6.812;2023-04-01T19:43:22;7.60;99.90
52919;DHT22;38793;52.690;6.812;2023-04-01T19:56:20;7.40;99.90
52919;DHT22;38793;52.690;6.812;2023-04-01T19:59:15;7.40;99.90
52919;DHT22;38793;52.690;6.812;2023-04-01T20:01:52;7.40;99.90
52919;DHT22;38793;52.690;6.812;2023-04-01T20:07:12;7.30;99.90
52919;DHT22;38793;52.690;6.812;2023-04-01T20:14:56;7.30;99.90
52919;DHT22;38793;52.690;6.812;2023-04-01T20:25:49;7.20;99.90
52919;DHT22;38793;52.690;6.812;2023-04-01T20:37:00;7.10;99.90
52919;DHT22;38793;52.690;6.812;2023-04-01T20:42:26;7.10;99.90
52919;DHT22;38793;52.690;6.812;2023-04-01T20:48:11;7.10;99.90
52919;DHT22;38793;52.690;6.812;2023-04-01T20:51:03;7.10;99.90
52919;DHT22;38793;52.690;6.812;2023-04-01T21:02:13;7.00;99.90
52919;DHT22;38793;52.690;6.812;2023-04-01T21:10:36;7.00;99.90
52919;DHT22;38793;52.690;6.812;2023-04-01T21:13:27;7.00;99.90
52919;DHT22;38793;52.690;6.812;2023-04-01T21:30:11;6.90;99.90
52919;DHT22;38793;52.690;6.812;2023-04-01T21:35:55;6.90;99.90
52919;DHT22;38793;52.690;6.812;2023-04-01T21:38:46;6.80;99.90
52919;DHT22;38793;52.690;6.812;2023-04-01T21:44:20;6.80;99.90
52919;DHT22;38793;52.690;6.812;2023-04-01T21:52:35;6.80;99.90
52919;DHT22;38793;52.690;6.812;2023-04-01T22:06:29;6.80;99.90
52919;DHT22;38793;52.690;6.812;2023-04-01T22:09:10;6.80;99.90
52919;DHT22;38793;52.690;6.812;2023-04-01T22:14:44;6.70;99.90
52919;DHT22;38793;52.690;6.812;2023-04-01T22:17:28;6.70;99.90
52919;DHT22;38793;52.690;6.812;2023-04-01T22:25:29;6.60;99.90
52919;DHT22;38793;52.690;6.812;2023-04-01T22:28:08;6.60;99.90
52919;DHT22;38793;52.690;6.812;2023-04-01T22:30:43;6.60;99.90
52919;DHT22;38793;52.690;6.812;2023-04-01T22:36:16;6.60;99.90
52919;DHT22;38793;52.690;6.812;2023-04-01T22:45:02;6.50;99.90
52919;DHT22;38793;52.690;6.812;2023-04-01T22:47:42;6.40;99.90
52919;DHT22;38793;52.690;6.812;2023-04-01T22:50:18;6.40;99.90
52919;DHT22;38793;52.690;6.812;2023-04-01T22:52:47;6.40;99.90
52919;DHT22;38793;52.690;6.812;2023-04-01T22:55:29;6.40;99.90
52919;DHT22;38793;52.690;6.812;2023-04-01T22:58:04;6.40;99.90
52919;DHT22;38793;52.690;6.812;2023-04-01T23:00:47;6.40;99.90
52919;DHT22;38793;52.690;6.812;2023-04-01T23:03:25;6.40;99.90
52919;DHT22;38793;52.690;6.812;2023-04-01T23:06:01;6.30;99.90
52919;DHT22;38793;52.690;6.812;2023-04-01T23:08:45;6.30;99.90
52919;DHT22;38793;52.690;6.812;2023-04-01T23:11:29;6.30;99.90
52919;DHT22;38793;52.690;6.812;2023-04-01T23:24:55;6.30;99.90
52919;DHT22;38793;52.690;6.812;2023-04-01T23:27:31;6.30;99.90
52919;DHT22;38793;52.690;6.812;2023-04-01T23:30:01;6.20;99.90
52919;DHT22;38793;52.690;6.812;2023-04-01T23:32:27;6.20;99.90
52919;DHT22;38793;52.690;6.812;2023-04-01T23:34:56;6.20;99.90
52919;DHT22;38793;52.690;6.812;2023-04-01T23:37:23;6.20;99.90
52919;DHT22;38793;52.690;6.812;2023-04-01T23:39:57;6.20;99.90
52919;DHT22;38793;52.690;6.812;2023-04-01T23:42:37;6.20;99.90
52919;DHT22;38793;52.690;6.812;2023-04-01T23:45:15;6.20;99.90
52919;DHT22;38793;52.690;6.812;2023-04-01T23:47:48;6.20;99.90
52919;DHT22;38793;52.690;6.812;2023-04-01T23:50:21;6.10;99.90
52919;DHT22;38793;52.690;6.812;2023-04-01T23:52:54;6.10;99.90
52919;DHT22;38793;52.690;6.812;2023-04-01T23:55:26;6.10;99.90
